Time;durP1;ratioP1;P1;durP2;ratioP2;P2;SDS_P1;SDS_P2;PMS_P1;PMS_P2;Temp;Humidity;BMP_temperature;BMP_pressure;BME280_temperature;BME280_humidity;BME280_pressure;Samples;Min_cycle;Max_cycle;Signal;HPM_P1;HPM_P2
2021/10/17 00:00:55;;;;;;;10.70;9.23;;;3.30;1.00;;;;;;5134446;27;20541;-52
2021/10/17 00:03:21;;;;;;;11.37;9.20;;;3.30;1.00;;;;;;5120449;28;20460;-54
2021/10/17 00:05:52;;;;;;;11.57;8.50;;;3.20;1.00;;;;;;5120297;28;20480;-54
2021/10/17 00:08:20;;;;;;;9.47;8.27;;;3.20;99.90;;;;;;5120385;28;20455;-52
2021/10/17 00:10:47;;;;;;;11.80;8.47;;;3.20;99.90;;;;;;5120058;28;20459;-54
2021/10/17 00:13:17;;;;;;;10.17;8.73;;;3.20;1.00;;;;;;5120047;28;20463;-56
2021/10/17 00:15:44;;;;;;;11.40;9.40;;;3.20;1.00;;;;;;5120020;28;20491;-56
2021/10/17 00:18:15;;;;;;;10.80;9.10;;;3.10;1.00;;;;;;5119406;28;20460;-54
2021/10/17 00:20:42;;;;;;;10.70;7.97;;;3.10;1.00;;;;;;5119536;28;20434;-56
2021/10/17 00:23:09;;;;;;;13.17;8.73;;;3.00;1.00;;;;;;5119884;28;20474;-56
2021/10/17 00:25:37;;;;;;;11.87;8.20;;;3.10;1.00;;;;;;5119850;28;20460;-58
2021/10/17 00:28:09;;;;;;;10.23;8.43;;;3.10;1.00;;;;;;5132328;27;20962;-58
2021/10/17 00:30:36;;;;;;;11.53;8.10;;;3.10;1.00;;;;;;5140196;27;20462;-57
2021/10/17 00:33:03;;;;;;;10.50;7.97;;;3.00;1.00;;;;;;5140149;27;20498;-58
2021/10/17 00:35:35;;;;;;;9.20;8.23;;;2.90;1.00;;;;;;5140268;27;20831;-55
2021/10/17 00:38:04;;;;;;;11.27;7.33;;;2.90;1.00;;;;;;5139834;27;20437;-54
2021/10/17 00:40:31;;;;;;;11.27;8.67;;;2.90;1.00;;;;;;5139759;27;20524;-57
2021/10/17 00:42:58;;;;;;;10.90;8.67;;;2.90;1.00;;;;;;5139966;27;20835;-58
2021/10/17 00:45:29;;;;;;;11.50;8.50;;;2.90;99.90;;;;;;5140099;27;20459;-57
2021/10/17 00:47:58;;;;;;;14.80;9.47;;;2.90;99.90;;;;;;5140039;27;20465;-54
2021/10/17 00:50:26;;;;;;;12.10;8.73;;;2.90;99.90;;;;;;5139902;27;20455;-57
2021/10/17 00:52:55;;;;;;;13.80;10.70;;;2.80;99.90;;;;;;5139294;27;20492;-57
2021/10/17 00:55:24;;;;;;;10.97;9.80;;;2.80;99.90;;;;;;5139711;27;20433;-53
2021/10/17 00:57:51;;;;;;;13.00;9.83;;;2.80;1.00;;;;;;5139951;27;20473;-56
2021/10/17 01:00:18;;;;;;;14.60;10.70;;;2.70;46.10;;;;;;5137739;27;20433;-54
2021/10/17 01:02:45;;;;;;;12.73;10.97;;;2.60;99.90;;;;;;5118776;28;20488;-54
2021/10/17 01:05:15;;;;;;;12.43;9.83;;;2.70;99.90;;;;;;5119135;28;20523;-52
2021/10/17 01:07:45;;;;;;;14.03;10.93;;;2.80;99.90;;;;;;5119152;28;20495;-54
2021/10/17 01:10:17;;;;;;;16.40;11.20;;;2.70;99.90;;;;;;5118725;28;20750;-54
2021/10/17 01:12:46;;;;;;;15.97;11.53;;;2.80;99.90;;;;;;5118903;28;20532;-55
2021/10/17 01:15:14;;;;;;;13.90;10.60;;;2.90;99.90;;;;;;5118988;28;20900;-56
2021/10/17 01:17:43;;;;;;;16.10;12.30;;;2.90;99.90;;;;;;5118655;28;20491;-58
2021/10/17 01:20:12;;;;;;;13.20;11.80;;;2.90;99.90;;;;;;5118524;28;20463;-51
2021/10/17 01:22:41;;;;;;;13.83;11.00;;;3.10;99.90;;;;;;5118670;28;20877;-54
2021/10/17 01:25:09;;;;;;;15.47;11.40;;;3.00;99.90;;;;;;5118941;28;20533;-54
2021/10/17 01:27:36;;;;;;;12.83;9.80;;;3.00;99.90;;;;;;5127528;27;20484;-58
2021/10/17 01:30:03;;;;;;;15.87;9.90;;;3.10;99.90;;;;;;5138634;27;20519;-58
2021/10/17 01:32:33;;;;;;;15.13;9.40;;;3.10;99.90;;;;;;5139112;27;20473;-58
2021/10/17 01:35:00;;;;;;;11.57;9.10;;;3.10;99.90;;;;;;5138974;27;20516;-59
2021/10/17 01:37:28;;;;;;;15.50;10.73;;;3.00;99.90;;;;;;5138891;27;20486;-53
2021/10/17 01:39:55;;;;;;;12.27;9.47;;;3.00;99.90;;;;;;5139083;27;20451;-50
2021/10/17 01:42:25;;;;;;;10.10;9.07;;;3.00;99.90;;;;;;5138768;27;20510;-57
2021/10/17 01:44:52;;;;;;;10.73;8.30;;;3.00;99.90;;;;;;5138816;27;20786;-55
2021/10/17 01:47:19;;;;;;;11.87;9.33;;;3.00;99.90;;;;;;5138885;27;20439;-55
2021/10/17 01:49:46;;;;;;;9.37;8.33;;;2.90;99.90;;;;;;5138921;27;20459;-56
2021/10/17 01:52:13;;;;;;;13.80;8.57;;;3.00;99.90;;;;;;5138237;27;20459;-52
2021/10/17 01:54:42;;;;;;;14.00;8.80;;;3.00;99.90;;;;;;5138701;27;20459;-54
2021/10/17 01:57:09;;;;;;;13.33;9.80;;;2.90;99.90;;;;;;5138475;27;20522;-57
2021/10/17 01:59:36;;;;;;;13.03;8.97;;;2.90;99.90;;;;;;5138634;27;20527;-57
2021/10/17 02:02:06;;;;;;;11.70;8.70;;;2.80;99.90;;;;;;5121697;27;20533;-52
2021/10/17 02:04:34;;;;;;;11.93;9.07;;;2.70;99.90;;;;;;5116977;28;20934;-51
2021/10/17 02:07:01;;;;;;;12.20;9.90;;;2.70;99.90;;;;;;5117959;28;20889;-56
2021/10/17 02:09:28;;;;;;;12.97;8.37;;;2.70;99.90;;;;;;5117872;28;20463;-53
2021/10/17 02:11:57;;;;;;;12.20;9.03;;;2.80;99.90;;;;;;5118085;28;20423;-58
2021/10/17 02:14:24;;;;;;;10.53;7.70;;;2.70;99.90;;;;;;5117362;28;20464;-52
2021/10/17 02:16:51;;;;;;;10.70;9.30;;;2.80;99.90;;;;;;5117819;28;20534;-55
2021/10/17 02:19:17;;;;;;;14.20;9.70;;;2.70;99.90;;;;;;5117685;28;20463;-57
2021/10/17 02:21:45;;;;;;;12.80;9.73;;;2.60;99.90;;;;;;5117778;28;20521;-57
2021/10/17 02:24:17;;;;;;;12.00;8.83;;;2.70;99.90;;;;;;5117466;28;20521;-58
2021/10/17 02:26:45;;;;;;;9.90;8.83;;;2.60;99.90;;;;;;5119421;28;20905;-52
2021/10/17 02:29:15;;;;;;;11.20;8.40;;;2.60;99.90;;;;;;5138115;28;20893;-57
2021/10/17 02:31:42;;;;;;;12.17;8.77;;;2.60;99.90;;;;;;5138204;28;20462;-57
2021/10/17 02:34:09;;;;;;;9.60;7.87;;;2.60;99.90;;;;;;5137840;28;20459;-54
2021/10/17 02:36:36;;;;;;;10.97;8.33;;;2.60;99.90;;;;;;5137963;28;20897;-55
2021/10/17 02:39:03;;;;;;;12.70;8.47;;;2.60;99.90;;;;;;5138194;28;20466;-53
2021/10/17 02:41:30;;;;;;;9.93;8.87;;;2.60;58.80;;;;;;5138029;28;20462;-54
2021/10/17 02:43:56;;;;;;;12.90;10.27;;;2.50;31.40;;;;;;5137749;28;20471;-54
2021/10/17 02:46:25;;;;;;;11.37;9.13;;;2.50;74.10;;;;;;5137716;28;20455;-54
2021/10/17 02:48:55;;;;;;;13.23;9.87;;;2.50;92.50;;;;;;5138026;28;20458;-56
2021/10/17 02:51:22;;;;;;;12.67;9.30;;;2.50;45.40;;;;;;5137944;28;20501;-54
2021/10/17 02:53:49;;;;;;;11.87;8.97;;;2.50;1.00;;;;;;5138012;28;20459;-50
2021/10/17 02:56:16;;;;;;;10.23;9.10;;;2.40;1.00;;;;;;5138176;28;20520;-55
2021/10/17 02:58:44;;;;;;;12.67;9.33;;;2.40;1.00;;;;;;5137300;28;20492;-48
2021/10/17 03:01:11;;;;;;;11.97;9.40;;;2.30;1.00;;;;;;5128843;28;20460;-50
2021/10/17 03:03:40;;;;;;;12.97;9.20;;;2.30;1.00;;;;;;5117334;28;20512;-56
2021/10/17 03:06:07;;;;;;;11.90;10.03;;;2.30;99.90;;;;;;5116958;28;20459;-55
2021/10/17 03:08:34;;;;;;;14.10;8.67;;;2.30;99.90;;;;;;5117112;28;20460;-58
2021/10/17 03:11:01;;;;;;;14.27;10.30;;;2.20;99.90;;;;;;5117378;28;20470;-55
2021/10/17 03:13:28;;;;;;;14.60;9.40;;;2.30;99.90;;;;;;5117348;28;20463;-55
2021/10/17 03:15:56;;;;;;;11.50;8.23;;;2.30;99.90;;;;;;5118028;28;20459;-55
2021/10/17 03:18:23;;;;;;;11.80;8.80;;;2.30;99.90;;;;;;5120856;28;20495;-52
2021/10/17 03:20:52;;;;;;;10.37;8.20;;;2.20;99.90;;;;;;5121000;28;20890;-50
2021/10/17 03:23:19;;;;;;;10.50;8.33;;;2.20;99.90;;;;;;5121200;28;20807;-54
2021/10/17 03:25:46;;;;;;;11.43;8.60;;;2.20;99.90;;;;;;5121233;28;20459;-53
2021/10/17 03:28:13;;;;;;;9.80;8.73;;;2.10;99.90;;;;;;5134774;27;20494;-56
2021/10/17 03:30:40;;;;;;;11.23;8.53;;;2.20;99.90;;;;;;5141961;27;20436;-51
2021/10/17 03:33:07;;;;;;;10.23;7.90;;;2.20;99.90;;;;;;5141699;27;20777;-52
2021/10/17 03:35:34;;;;;;;10.70;7.30;;;2.10;99.90;;;;;;5141379;27;20437;-53
2021/10/17 03:38:02;;;;;;;10.20;8.70;;;2.10;99.90;;;;;;5141103;27;20517;-54
2021/10/17 03:40:31;;;;;;;12.20;8.63;;;2.20;99.90;;;;;;5141049;27;20458;-52
2021/10/17 03:42:58;;;;;;;12.23;9.40;;;2.20;99.90;;;;;;5141316;27;20465;-51
2021/10/17 03:45:26;;;;;;;14.87;9.10;;;2.10;99.90;;;;;;5140854;27;20516;-56
2021/10/17 03:47:53;;;;;;;9.40;8.30;;;2.10;99.90;;;;;;5141621;27;20459;-56
2021/10/17 03:50:20;;;;;;;16.50;9.80;;;2.00;99.90;;;;;;5141119;27;20466;-55
2021/10/17 03:52:47;;;;;;;10.10;7.93;;;2.00;99.90;;;;;;5141011;27;20867;-54
2021/10/17 03:55:15;;;;;;;14.60;9.13;;;2.00;99.90;;;;;;5141172;27;20551;-55
2021/10/17 03:57:42;;;;;;;10.07;7.23;;;1.90;99.90;;;;;;5141076;27;20557;-56
2021/10/17 04:00:13;;;;;;;9.90;8.77;;;1.90;99.90;;;;;;5140380;27;20737;-59
2021/10/17 04:02:40;;;;;;;13.67;9.67;;;1.90;99.90;;;;;;5120324;28;20467;-55
2021/10/17 04:05:07;;;;;;;13.77;8.50;;;2.00;99.90;;;;;;5120121;28;20564;-54
2021/10/17 04:07:37;;;;;;;9.87;8.47;;;2.00;99.90;;;;;;5120356;28;20458;-56
2021/10/17 04:10:05;;;;;;;12.70;9.17;;;2.00;99.90;;;;;;5120125;28;20786;-58
2021/10/17 04:12:36;;;;;;;11.53;8.60;;;2.10;99.90;;;;;;5119770;28;20463;-58
2021/10/17 04:15:04;;;;;;;9.70;8.33;;;2.10;99.90;;;;;;5119668;28;20484;-57
2021/10/17 04:17:31;;;;;;;9.03;8.13;;;2.10;99.90;;;;;;5120081;28;20494;-54
2021/10/17 04:19:58;;;;;;;12.93;8.30;;;2.10;99.90;;;;;;5119729;28;20468;-58
2021/10/17 04:22:25;;;;;;;13.00;8.90;;;2.20;99.90;;;;;;5119773;28;20517;-55
2021/10/17 04:24:52;;;;;;;11.00;8.50;;;2.20;99.90;;;;;;5119945;28;20471;-55
2021/10/17 04:27:22;;;;;;;10.03;8.13;;;2.20;99.90;;;;;;5125761;27;20919;-55
2021/10/17 04:29:50;;;;;;;9.43;8.37;;;2.20;99.90;;;;;;5139829;27;20458;-57
2021/10/17 04:32:17;;;;;;;10.60;8.20;;;2.30;99.90;;;;;;5140712;27;20466;-55
2021/10/17 04:34:44;;;;;;;9.03;7.80;;;2.40;99.90;;;;;;5139649;27;20852;-55
2021/10/17 04:37:11;;;;;;;15.83;8.50;;;2.40;99.90;;;;;;5139634;27;20490;-57
2021/10/17 04:39:40;;;;;;;14.40;8.33;;;2.40;99.90;;;;;;5140416;27;20524;-55
2021/10/17 04:42:07;;;;;;;8.93;8.00;;;2.40;99.90;;;;;;5140003;27;20459;-55
2021/10/17 04:44:39;;;;;;;17.00;9.30;;;2.40;99.90;;;;;;5139909;27;20961;-57
2021/10/17 04:47:07;;;;;;;11.10;8.60;;;2.40;99.90;;;;;;5140052;27;20843;-54
2021/10/17 04:49:34;;;;;;;9.50;8.60;;;2.40;99.90;;;;;;5140042;27;20437;-56
2021/10/17 04:52:01;;;;;;;9.27;8.30;;;2.40;99.90;;;;;;5139649;27;20744;-58
2021/10/17 04:54:28;;;;;;;11.37;8.77;;;2.40;99.90;;;;;;5139616;27;20437;-57
2021/10/17 04:56:57;;;;;;;10.27;8.30;;;2.50;99.90;;;;;;5139622;27;20853;-58
2021/10/17 04:59:24;;;;;;;13.03;7.53;;;2.50;99.90;;;;;;5139901;27;20465;-59
2021/10/17 05:01:51;;;;;;;17.90;11.63;;;2.50;99.90;;;;;;5124246;27;20456;-57
2021/10/17 05:04:20;;;;;;;16.63;12.33;;;2.50;99.90;;;;;;5118440;28;20519;-56
2021/10/17 05:06:49;;;;;;;19.23;12.00;;;2.40;99.90;;;;;;5118856;28;20496;-57
2021/10/17 05:09:16;;;;;;;13.60;10.90;;;2.40;99.90;;;;;;5119067;28;20459;-57
2021/10/17 05:11:43;;;;;;;10.70;8.80;;;2.40;99.90;;;;;;5118857;28;20464;-57
2021/10/17 05:14:10;;;;;;;13.97;7.93;;;2.50;99.90;;;;;;5119022;28;20459;-53
2021/10/17 05:16:37;;;;;;;11.97;8.83;;;2.60;99.90;;;;;;5118477;28;20480;-57
2021/10/17 05:19:04;;;;;;;11.70;8.83;;;2.60;99.90;;;;;;5118614;28;20546;-55
2021/10/17 05:21:32;;;;;;;13.30;9.00;;;2.60;99.90;;;;;;5118793;28;20797;-56
2021/10/17 05:23:59;;;;;;;14.50;9.13;;;2.60;99.90;;;;;;5118496;28;20948;-57
2021/10/17 05:26:26;;;;;;;12.03;9.40;;;2.60;99.90;;;;;;5118341;28;20886;-58
2021/10/17 05:28:53;;;;;;;11.20;9.70;;;2.70;99.90;;;;;;5118335;28;20517;-58
2021/10/17 05:31:22;;;;;;;16.47;9.77;;;2.80;99.90;;;;;;5118779;28;20495;-58
2021/10/17 05:33:49;;;;;;;12.50;8.80;;;2.70;99.90;;;;;;5118638;28;20437;-57
2021/10/17 05:36:16;;;;;;;10.80;8.03;;;2.70;99.90;;;;;;5118168;28;20442;-59
2021/10/17 05:38:44;;;;;;;13.53;9.80;;;2.70;99.90;;;;;;5118239;28;20970;-59
2021/10/17 05:41:15;;;;;;;13.73;9.73;;;2.80;99.90;;;;;;5117587;28;20484;-59
2021/10/17 05:43:42;;;;;;;14.80;9.13;;;2.80;99.90;;;;;;5118483;28;20532;-59
2021/10/17 05:46:09;;;;;;;11.53;9.67;;;2.80;99.90;;;;;;5117653;28;20538;-60
2021/10/17 05:48:36;;;;;;;12.93;9.40;;;2.80;99.90;;;;;;5117978;28;20434;-60
2021/10/17 05:51:03;;;;;;;11.70;10.40;;;3.00;99.90;;;;;;5118312;28;20528;-60
2021/10/17 05:53:30;;;;;;;11.50;9.07;;;3.00;99.90;;;;;;5118302;28;20442;-60
2021/10/17 05:55:58;;;;;;;10.57;9.47;;;3.10;99.90;;;;;;5118023;28;20494;-60
2021/10/17 05:58:25;;;;;;;10.17;8.57;;;3.10;99.90;;;;;;5117538;28;20495;-60
2021/10/17 06:00:52;;;;;;;12.27;8.60;;;3.10;99.90;;;;;;5111277;28;20850;-60
2021/10/17 06:03:19;;;;;;;10.03;8.63;;;3.10;99.90;;;;;;5097156;28;20908;-59
2021/10/17 06:05:49;;;;;;;9.80;8.80;;;3.20;99.90;;;;;;5097344;28;20484;-57
2021/10/17 06:08:18;;;;;;;11.07;8.57;;;3.20;99.90;;;;;;5097304;28;20461;-57
2021/10/17 06:10:45;;;;;;;11.47;8.70;;;3.30;99.90;;;;;;5097228;28;20443;-58
2021/10/17 06:13:13;;;;;;;11.23;10.07;;;3.30;99.90;;;;;;5097445;28;20497;-58
2021/10/17 06:15:40;;;;;;;11.00;9.90;;;3.40;99.90;;;;;;5097566;28;20500;-59
2021/10/17 06:18:09;;;;;;;10.43;9.43;;;3.50;99.90;;;;;;5096964;28;20528;-58
2021/10/17 06:20:36;;;;;;;11.33;8.97;;;3.50;99.90;;;;;;5097243;28;20535;-57
2021/10/17 06:23:03;;;;;;;10.80;9.70;;;3.60;99.90;;;;;;5097088;28;20465;-58
2021/10/17 06:25:34;;;;;;;11.50;9.00;;;3.60;99.90;;;;;;5097522;28;20460;-56
2021/10/17 06:28:01;;;;;;;10.87;9.43;;;3.70;99.90;;;;;;5121849;27;20455;-59
2021/10/17 06:30:30;;;;;;;11.67;9.77;;;3.70;99.90;;;;;;5138190;27;20488;-60
2021/10/17 06:32:57;;;;;;;15.00;9.77;;;3.80;99.90;;;;;;5137695;28;20872;-59
2021/10/17 06:35:23;;;;;;;16.03;9.67;;;3.80;99.90;;;;;;5126834;28;20536;-59
2021/10/17 06:37:50;;;;;;;12.87;10.60;;;3.90;99.90;;;;;;5117500;28;20487;-59
2021/10/17 06:40:17;;;;;;;12.00;10.20;;;4.00;99.90;;;;;;5116951;28;20939;-59
2021/10/17 06:42:48;;;;;;;13.60;10.20;;;4.10;99.90;;;;;;5116765;28;20460;-59
2021/10/17 06:45:14;;;;;;;11.63;10.43;;;4.10;99.90;;;;;;5117417;28;20540;-59
2021/10/17 06:47:46;;;;;;;15.90;10.83;;;4.20;99.90;;;;;;5117219;28;20513;-59
2021/10/17 06:50:17;;;;;;;15.10;10.83;;;4.20;99.90;;;;;;5116842;28;20458;-59
2021/10/17 06:52:45;;;;;;;13.53;10.93;;;4.30;99.90;;;;;;5121301;28;20517;-59
2021/10/17 06:55:15;;;;;;;15.43;11.17;;;4.40;99.90;;;;;;5121651;28;20485;-59
2021/10/17 06:57:42;;;;;;;12.83;10.70;;;4.40;99.90;;;;;;5121777;28;20502;-59
2021/10/17 07:00:21;;;;;;;14.27;10.67;;;4.40;99.90;;;;;;5120954;28;20463;-59
2021/10/17 07:02:49;;;;;;;18.63;10.73;;;4.50;99.90;;;;;;5101501;28;20805;-59
2021/10/17 07:05:16;;;;;;;11.20;10.03;;;4.40;99.90;;;;;;5115479;28;20583;-57
2021/10/17 07:07:43;;;;;;;10.20;9.13;;;4.50;99.90;;;;;;5121223;28;20430;-58
2021/10/17 07:10:10;;;;;;;12.80;9.30;;;4.50;99.90;;;;;;5120867;28;20461;-59
2021/10/17 07:12:37;;;;;;;40.63;27.57;;;4.50;99.90;;;;;;5120946;28;20438;-58
2021/10/17 07:15:08;;;;;;;18.20;12.87;;;4.70;99.90;;;;;;5120867;28;20505;-59
2021/10/17 07:17:36;;;;;;;10.03;9.03;;;4.80;99.90;;;;;;5121310;28;20438;-58
2021/10/17 07:20:05;;;;;;;10.23;8.93;;;4.90;99.90;;;;;;5120953;28;20696;-58
2021/10/17 07:22:32;;;;;;;9.57;8.57;;;4.90;99.90;;;;;;5120803;28;20531;-58
2021/10/17 07:24:59;;;;;;;15.10;9.53;;;5.00;99.90;;;;;;5120907;28;20460;-56
2021/10/17 07:27:27;;;;;;;22.80;15.57;;;5.00;99.90;;;;;;5128617;27;20519;-59
2021/10/17 07:29:53;;;;;;;11.30;9.70;;;5.10;99.90;;;;;;5141569;27;20740;-59
2021/10/17 07:32:20;;;;;;;12.60;10.30;;;5.20;67.00;;;;;;5141332;27;20773;-58
2021/10/17 07:34:49;;;;;;;10.10;9.10;;;5.30;1.00;;;;;;5141302;27;20490;-57
2021/10/17 07:37:17;;;;;;;9.60;8.67;;;5.40;1.00;;;;;;5141239;27;20514;-59
2021/10/17 07:39:45;;;;;;;14.30;10.00;;;5.50;1.00;;;;;;5141514;27;20525;-57
2021/10/17 07:42:15;;;;;;;9.90;8.90;;;5.50;1.00;;;;;;5140866;27;20742;-59
2021/10/17 07:44:42;;;;;;;13.93;9.73;;;5.50;1.00;;;;;;5141112;27;20498;-59
2021/10/17 07:47:09;;;;;;;10.93;8.73;;;5.60;1.00;;;;;;5141346;27;20508;-57
2021/10/17 07:49:39;;;;;;;15.03;9.87;;;5.80;99.90;;;;;;5141113;27;20472;-59
2021/10/17 07:52:06;;;;;;;14.77;12.57;;;6.00;99.90;;;;;;5140366;27;20463;-59
2021/10/17 07:54:37;;;;;;;17.93;13.77;;;6.10;1.00;;;;;;5120308;27;20545;-59
2021/10/17 07:57:06;;;;;;;18.57;12.10;;;6.20;1.00;;;;;;5120391;28;20463;-59
2021/10/17 07:59:33;;;;;;;18.80;10.93;;;6.30;99.90;;;;;;5119602;28;20472;-59
2021/10/17 08:02:00;;;;;;;13.30;10.67;;;6.40;30.40;;;;;;5103540;28;20518;-59
2021/10/17 08:04:27;;;;;;;12.07;9.43;;;6.50;1.00;;;;;;5098790;28;20466;-58
2021/10/17 08:06:54;;;;;;;13.83;10.20;;;6.60;1.00;;;;;;5099652;28;20514;-55
2021/10/17 08:09:21;;;;;;;12.70;10.27;;;6.70;99.90;;;;;;5111833;28;20487;-57
2021/10/17 08:11:49;;;;;;;13.90;10.07;;;6.70;99.90;;;;;;5120125;28;20495;-58
2021/10/17 08:14:22;;;;;;;9.47;8.57;;;6.80;99.90;;;;;;5108090;28;20508;-57
2021/10/17 08:16:49;;;;;;;11.07;8.93;;;6.80;1.00;;;;;;5108232;28;20508;-58
2021/10/17 08:19:19;;;;;;;11.23;8.97;;;6.90;99.90;;;;;;5118972;28;20491;-57
2021/10/17 08:21:46;;;;;;;16.13;14.60;;;7.00;99.90;;;;;;5114214;28;20503;-57
2021/10/17 08:24:13;;;;;;;15.70;13.63;;;6.90;99.90;;;;;;5108312;28;20464;-58
2021/10/17 08:26:40;;;;;;;11.77;8.83;;;6.90;99.90;;;;;;5099519;27;20843;-57
2021/10/17 08:29:08;;;;;;;9.53;8.03;;;6.90;63.30;;;;;;5138918;27;20450;-58
2021/10/17 08:31:35;;;;;;;14.27;9.20;;;7.00;19.50;;;;;;5140633;27;20508;-55
2021/10/17 08:34:02;;;;;;;9.17;8.27;;;7.30;83.10;;;;;;5139364;27;20570;-59
2021/10/17 08:36:32;;;;;;;9.77;8.77;;;7.60;99.90;;;;;;5139707;27;20450;-59
2021/10/17 08:38:59;;;;;;;12.70;8.97;;;7.80;99.90;;;;;;5140437;27;20491;-58
2021/10/17 08:41:26;;;;;;;12.67;10.70;;;7.80;99.90;;;;;;5140513;27;20495;-57
2021/10/17 08:43:53;;;;;;;12.67;10.87;;;8.00;60.70;;;;;;5140133;27;20433;-59
2021/10/17 08:46:22;;;;;;;11.63;10.43;;;7.90;1.00;;;;;;5139932;27;20519;-59
2021/10/17 08:48:56;;;;;;;14.10;9.53;;;8.10;1.00;;;;;;5139795;27;20454;-59
2021/10/17 08:51:26;;;;;;;11.73;8.10;;;8.30;1.00;;;;;;5140356;27;20463;-59
2021/10/17 08:53:56;;;;;;;17.57;13.57;;;8.50;1.00;;;;;;5139832;27;20458;-58
2021/10/17 08:56:27;;;;;;;14.87;9.13;;;8.70;1.00;;;;;;5120807;27;20810;-59
2021/10/17 08:58:54;;;;;;;14.67;9.80;;;8.80;1.00;;;;;;5118370;28;20491;-57
2021/10/17 09:01:23;;;;;;;12.07;10.07;;;8.70;1.00;;;;;;5108692;28;20457;-57
2021/10/17 09:03:58;;;;;;;12.63;8.00;;;8.70;1.00;;;;;;5108122;28;20523;-58
2021/10/17 09:06:27;;;;;;;13.70;10.43;;;8.60;1.00;;;;;;5118939;28;20445;-57
2021/10/17 09:09:08;;;;;;;13.30;9.40;;;8.70;1.00;;;;;;5118819;28;20495;-56
2021/10/17 09:11:42;;;;;;;13.40;9.40;;;8.80;1.00;;;;;;5118234;28;20482;-55
2021/10/17 09:14:10;;;;;;;12.60;9.33;;;8.90;1.00;;;;;;5117607;28;20484;-57
2021/10/17 09:16:40;;;;;;;15.00;9.20;;;9.00;1.00;;;;;;5118327;28;20438;-55
2021/10/17 09:19:15;;;;;;;14.33;9.60;;;9.30;1.00;;;;;;5118563;28;20545;-57
2021/10/17 09:22:03;;;;;;;12.70;9.03;;;9.40;1.00;;;;;;5118543;28;20909;-57
2021/10/17 09:24:33;;;;;;;13.63;10.90;;;9.40;1.00;;;;;;5128903;27;20799;-58
2021/10/17 09:27:12;;;;;;;13.27;10.40;;;9.70;1.00;;;;;;5126656;27;20462;-55
2021/10/17 09:29:45;;;;;;;11.77;9.37;;;10.00;1.00;;;;;;5122555;27;20426;-57
2021/10/17 09:32:19;;;;;;;15.33;13.20;;;10.10;1.00;;;;;;5128181;27;20504;-57
2021/10/17 09:34:54;;;;;;;24.30;18.40;;;10.30;1.00;;;;;;5125937;27;20539;-58
2021/10/17 09:37:29;;;;;;;11.37;10.17;;;10.50;1.00;;;;;;5122342;27;20465;-58
2021/10/17 09:40:06;;;;;;;10.20;8.63;;;10.60;1.00;;;;;;5125437;27;20528;-56
2021/10/17 09:42:39;;;;;;;17.23;12.63;;;10.40;1.00;;;;;;5124751;27;20774;-57
2021/10/17 09:45:24;;;;;;;10.70;8.80;;;10.40;1.00;;;;;;5126301;27;20467;-56
2021/10/17 09:47:52;;;;;;;13.40;10.20;;;10.70;1.00;;;;;;5127643;27;20458;-56
2021/10/17 09:50:30;;;;;;;25.57;20.53;;;10.80;1.00;;;;;;5127721;27;20821;-57
2021/10/17 09:53:08;;;;;;;15.47;11.13;;;11.00;1.00;;;;;;5127876;27;20896;-57
2021/10/17 09:55:36;;;;;;;28.10;21.83;;;11.20;1.00;;;;;;5121351;27;20483;-57
2021/10/17 09:58:06;;;;;;;11.80;10.53;;;11.30;1.00;;;;;;5123683;27;20748;-55
2021/10/17 10:00:36;;;;;;;13.70;9.70;;;11.50;1.00;;;;;;5122405;27;20491;-54
2021/10/17 10:03:07;;;;;;;12.33;10.57;;;11.60;1.00;;;;;;5125640;27;20799;-56
2021/10/17 10:05:37;;;;;;;11.00;8.80;;;11.90;1.00;;;;;;5117794;28;20929;-57
2021/10/17 10:08:08;;;;;;;12.10;9.10;;;12.10;1.00;;;;;;5117534;28;20460;-51
2021/10/17 10:10:36;;;;;;;12.33;8.33;;;12.30;99.90;;;;;;5117403;27;20466;-57
2021/10/17 10:13:05;;;;;;;15.03;8.50;;;12.50;99.90;;;;;;5118622;27;20455;-56
2021/10/17 10:15:33;;;;;;;10.03;7.83;;;12.70;99.90;;;;;;5124014;27;20483;-57
2021/10/17 10:18:03;;;;;;;8.20;7.33;;;12.90;99.90;;;;;;5124896;27;20491;-56
2021/10/17 10:20:34;;;;;;;11.33;8.60;;;13.20;99.90;;;;;;5124492;27;20519;-54
2021/10/17 10:23:02;;;;;;;9.20;8.20;;;13.50;99.90;;;;;;5126661;27;20458;-57
2021/10/17 10:25:32;;;;;;;9.97;7.70;;;13.80;99.90;;;;;;5121683;27;20922;-55
2021/10/17 10:28:00;;;;;;;8.90;6.93;;;14.00;99.90;;;;;;5129162;27;20486;-57
2021/10/17 10:30:30;;;;;;;12.33;6.23;;;14.20;99.90;;;;;;5137934;27;20512;-56
2021/10/17 10:33:13;;;;;;;10.53;6.60;;;14.20;99.90;;;;;;5138155;27;20535;-53
2021/10/17 10:36:12;;;;;;;9.87;6.13;;;14.40;99.90;;;;;;5138280;28;20465;-56
2021/10/17 10:39:16;;;;;;;6.63;5.93;;;14.50;99.90;;;;;;5137502;28;20520;-51
2021/10/17 10:42:01;;;;;;;7.63;6.60;;;14.70;99.90;;;;;;5138283;28;20881;-51
2021/10/17 10:44:35;;;;;;;8.47;5.90;;;14.90;99.90;;;;;;5137905;28;20484;-53
2021/10/17 10:47:22;;;;;;;9.47;6.77;;;15.10;99.90;;;;;;5128128;28;20451;-49
2021/10/17 10:50:00;;;;;;;9.30;6.13;;;15.40;99.90;;;;;;5117235;28;20505;-53
2021/10/17 10:52:46;;;;;;;7.80;6.17;;;15.50;99.90;;;;;;5117176;28;20459;-50
2021/10/17 10:55:50;;;;;;;9.13;5.50;;;15.40;99.90;;;;;;5116996;28;20466;-51
2021/10/17 10:58:36;;;;;;;6.80;5.33;;;15.30;99.90;;;;;;5118754;28;20885;-55
2021/10/17 11:01:10;;;;;;;6.93;6.10;;;15.00;99.90;;;;;;5124661;28;20443;-50
2021/10/17 11:03:44;;;;;;;9.53;6.43;;;15.20;99.90;;;;;;5128384;27;20947;-54
2021/10/17 11:06:19;;;;;;;6.80;5.40;;;15.40;99.90;;;;;;5154057;27;20457;-56
2021/10/17 11:09:19;;;;;;;6.80;4.13;;;15.60;99.90;;;;;;5136645;27;20462;-54
2021/10/17 11:11:51;;;;;;;11.80;5.80;;;15.90;99.90;;;;;;5137457;27;20752;-55
2021/10/17 11:14:18;;;;;;;5.67;4.97;;;16.30;99.90;;;;;;5140750;27;20454;-55
2021/10/17 11:16:44;;;;;;;5.73;4.93;;;16.30;99.90;;;;;;5136992;27;20892;-54
2021/10/17 11:19:12;;;;;;;5.27;4.60;;;16.60;99.90;;;;;;5149269;27;20485;-54
2021/10/17 11:21:39;;;;;;;7.77;4.67;;;16.80;99.90;;;;;;5144400;27;20881;-53
2021/10/17 11:24:10;;;;;;;6.60;4.53;;;17.00;99.90;;;;;;5142442;27;20494;-49
2021/10/17 11:26:39;;;;;;;5.00;3.40;;;17.00;99.90;;;;;;5141210;27;20466;-49
2021/10/17 11:29:07;;;;;;;10.30;3.53;;;17.10;99.90;;;;;;5147441;27;20450;-52
2021/10/17 11:31:34;;;;;;;3.40;2.80;;;17.50;99.90;;;;;;5131588;27;20734;-48
2021/10/17 11:34:04;;;;;;;4.60;3.20;;;17.20;99.90;;;;;;5138564;27;20467;-48
2021/10/17 11:36:32;;;;;;;3.63;3.23;;;17.20;99.90;;;;;;5135199;27;20548;-51
2021/10/17 11:39:02;;;;;;;6.10;3.13;;;16.90;99.90;;;;;;5149318;27;20446;-52
2021/10/17 11:41:31;;;;;;;5.87;3.20;;;16.90;99.90;;;;;;5153261;27;20451;-47
2021/10/17 11:44:03;;;;;;;3.67;3.03;;;16.80;99.90;;;;;;5149573;27;20497;-46
2021/10/17 11:46:32;;;;;;;6.23;3.40;;;16.80;99.90;;;;;;5147391;27;20458;-49
2021/10/17 11:49:00;;;;;;;7.50;3.00;;;16.60;99.90;;;;;;5147767;27;20935;-52
2021/10/17 11:51:27;;;;;;;3.87;2.80;;;16.60;99.90;;;;;;5143771;27;20798;-52
2021/10/17 11:53:57;;;;;;;5.67;2.73;;;16.50;99.90;;;;;;5141124;27;20773;-51
2021/10/17 11:56:26;;;;;;;5.93;3.70;;;16.30;99.90;;;;;;5151754;27;20456;-47
2021/10/17 11:58:53;;;;;;;3.80;3.00;;;16.50;99.90;;;;;;5143468;27;20429;-51
2021/10/17 12:01:21;;;;;;;3.27;2.97;;;16.50;99.90;;;;;;5145073;27;20477;-53
2021/10/17 12:04:01;;;;;;;7.53;3.40;;;16.50;99.90;;;;;;5149290;27;20512;-46
2021/10/17 12:06:27;;;;;;;9.13;6.50;;;16.60;99.90;;;;;;5146216;27;20893;-48
2021/10/17 12:08:56;;;;;;;17.17;10.50;;;16.60;99.90;;;;;;5140594;27;20454;-47
2021/10/17 12:11:25;;;;;;;15.50;9.40;;;16.50;99.90;;;;;;5139400;27;20451;-48
2021/10/17 12:13:54;;;;;;;6.20;3.73;;;16.40;99.90;;;;;;5139753;27;20988;-51
2021/10/17 12:16:26;;;;;;;19.80;11.23;;;16.50;99.90;;;;;;5139197;27;20460;-52
2021/10/17 12:18:58;;;;;;;5.60;4.07;;;16.70;99.90;;;;;;5147914;27;20454;-52
2021/10/17 12:21:31;;;;;;;6.30;3.80;;;16.70;99.90;;;;;;5146197;27;20453;-50
2021/10/17 12:23:58;;;;;;;9.23;5.83;;;16.60;99.90;;;;;;5146636;27;20492;-53
2021/10/17 12:26:29;;;;;;;9.73;6.40;;;16.50;99.90;;;;;;5148276;27;20461;-52
2021/10/17 12:29:07;;;;;;;15.00;11.47;;;16.50;99.90;;;;;;5150716;27;20502;-53
2021/10/17 12:31:36;;;;;;;4.73;4.23;;;16.50;99.90;;;;;;5161495;27;20459;-49
2021/10/17 12:34:06;;;;;;;3.90;3.30;;;16.60;99.90;;;;;;5160736;27;20751;-48
2021/10/17 12:36:35;;;;;;;3.20;2.57;;;16.50;99.90;;;;;;5159937;27;20465;-49
2021/10/17 12:39:05;;;;;;;7.50;5.77;;;16.50;99.90;;;;;;5160598;27;20432;-55
2021/10/17 12:41:35;;;;;;;6.20;5.20;;;16.40;99.90;;;;;;5161156;27;20812;-50
2021/10/17 12:44:07;;;;;;;4.63;3.23;;;16.20;99.90;;;;;;5160306;27;20572;-45
2021/10/17 12:46:35;;;;;;;4.30;3.00;;;16.10;99.90;;;;;;5160600;27;20991;-46
2021/10/17 12:49:15;;;;;;;12.47;9.87;;;16.30;99.90;;;;;;5160293;27;20514;-47
2021/10/17 12:51:56;;;;;;;10.00;7.20;;;16.40;99.90;;;;;;5160814;27;20435;-49
2021/10/17 12:54:27;;;;;;;8.13;5.63;;;16.60;99.90;;;;;;5155226;27;20482;-49
2021/10/17 12:56:59;;;;;;;6.50;4.50;;;16.60;99.90;;;;;;5140712;27;20436;-48